sensor_id;sensor_type;location;lat;lon;timestamp;pressure;altitude;pressure_sealevel;temperature;humidity
69127;BME280;56688;50.234;19.292;2023-03-26T00:01:20;97556.54;;;7.78;68.28
69127;BME280;56688;50.234;19.292;2023-03-26T00:03:50;97558.59;;;7.80;68.36
69127;BME280;56688;50.234;19.292;2023-03-26T00:06:21;97558.80;;;7.81;68.17
69127;BME280;56688;50.234;19.292;2023-03-26T00:08:50;97557.45;;;7.81;68.34
69127;BME280;56688;50.234;19.292;2023-03-26T00:11:19;97555.96;;;7.80;68.70
69127;BME280;56688;50.234;19.292;2023-03-26T00:13:46;97555.51;;;7.77;68.43
69127;BME280;56688;50.234;19.292;2023-03-26T00:16:17;97558.24;;;7.76;68.83
69127;BME280;56688;50.234;19.292;2023-03-26T00:18:46;97555.39;;;7.77;68.89
69127;BME280;56688;50.234;19.292;2023-03-26T00:21:17;97555.31;;;7.79;68.89
69127;BME280;56688;50.234;19.292;2023-03-26T00:23:46;97555.08;;;7.80;68.99
69127;BME280;56688;50.234;19.292;2023-03-26T00:26:15;97555.31;;;7.79;69.22
69127;BME280;56688;50.234;19.292;2023-03-26T00:28:43;97555.31;;;7.79;68.91
69127;BME280;56688;50.234;19.292;2023-03-26T00:31:12;97552.44;;;7.78;69.20
69127;BME280;56688;50.234;19.292;2023-03-26T00:33:41;97559.98;;;7.78;69.08
69127;BME280;56688;50.234;19.292;2023-03-26T00:36:11;97559.48;;;7.75;68.69
69127;BME280;56688;50.234;19.292;2023-03-26T00:38:41;97561.92;;;7.75;68.86
69127;BME280;56688;50.234;19.292;2023-03-26T00:41:12;97566.23;;;7.77;68.96
69127;BME280;56688;50.234;19.292;2023-03-26T00:43:57;97570.41;;;7.79;68.93
69127;BME280;56688;50.234;19.292;2023-03-26T00:46:26;97569.10;;;7.80;69.32
69127;BME280;56688;50.234;19.292;2023-03-26T00:48:53;97558.70;;;7.77;70.40
69127;BME280;56688;50.234;19.292;2023-03-26T00:51:25;97546.12;;;7.69;71.16
69127;BME280;56688;50.234;19.292;2023-03-26T00:53:54;97532.75;;;7.59;71.62
69127;BME280;56688;50.234;19.292;2023-03-26T00:56:21;97540.91;;;7.50;72.89
69127;BME280;56688;50.234;19.292;2023-03-26T00:58:48;97547.13;;;7.41;74.16
69127;BME280;56688;50.234;19.292;2023-03-26T01:01:18;97550.35;;;7.32;74.52
69127;BME280;56688;50.234;19.292;2023-03-26T01:03:47;97552.64;;;7.28;75.70
69127;BME280;56688;50.234;19.292;2023-03-26T01:06:33;97549.97;;;7.26;75.65
69127;BME280;56688;50.234;19.292;2023-03-26T01:09:12;97552.91;;;7.27;75.85
69127;BME280;56688;50.234;19.292;2023-03-26T01:11:40;97541.22;;;7.26;76.03
69127;BME280;56688;50.234;19.292;2023-03-26T01:14:10;97539.91;;;7.26;76.19
69127;BME280;56688;50.234;19.292;2023-03-26T01:16:56;97535.91;;;7.25;76.23
69127;BME280;56688;50.234;19.292;2023-03-26T01:19:28;97525.05;;;7.22;76.44
69127;BME280;56688;50.234;19.292;2023-03-26T01:21:57;97521.29;;;7.18;76.41
69127;BME280;56688;50.234;19.292;2023-03-26T01:24:27;97520.23;;;7.14;76.08
69127;BME280;56688;50.234;19.292;2023-03-26T01:32:20;97526.13;;;7.06;76.02
69127;BME280;56688;50.234;19.292;2023-03-26T01:34:54;97524.36;;;7.02;75.77
69127;BME280;56688;50.234;19.292;2023-03-26T01:37:33;97519.05;;;6.97;75.75
69127;BME280;56688;50.234;19.292;2023-03-26T01:43:20;97516.67;;;6.84;75.89
69127;BME280;56688;50.234;19.292;2023-03-26T01:45:51;97512.90;;;6.80;75.81
69127;BME280;56688;50.234;19.292;2023-03-26T01:48:19;97516.48;;;6.78;76.05
69127;BME280;56688;50.234;19.292;2023-03-26T01:50:46;97515.48;;;6.76;75.82
69127;BME280;56688;50.234;19.292;2023-03-26T01:53:14;97517.30;;;6.72;75.69
69127;BME280;56688;50.234;19.292;2023-03-26T01:58:34;97518.15;;;6.62;75.62
69127;BME280;56688;50.234;19.292;2023-03-26T02:04:00;97506.55;;;6.54;75.93
69127;BME280;56688;50.234;19.292;2023-03-26T02:06:50;97509.08;;;6.53;76.07
69127;BME280;56688;50.234;19.292;2023-03-26T02:09:23;97507.87;;;6.52;75.73
69127;BME280;56688;50.234;19.292;2023-03-26T02:11:53;97504.83;;;6.50;75.70
69127;BME280;56688;50.234;19.292;2023-03-26T02:14:21;97504.39;;;6.47;75.55
69127;BME280;56688;50.234;19.292;2023-03-26T02:16:48;97499.45;;;6.41;75.70
69127;BME280;56688;50.234;19.292;2023-03-26T02:19:17;97506.70;;;6.39;76.09
69127;BME280;56688;50.234;19.292;2023-03-26T02:21:48;97499.66;;;6.37;75.79
69127;BME280;56688;50.234;19.292;2023-03-26T02:24:18;97502.63;;;6.39;75.97
69127;BME280;56688;50.234;19.292;2023-03-26T02:26:46;97501.73;;;6.41;75.79
69127;BME280;56688;50.234;19.292;2023-03-26T02:29:13;97507.50;;;6.41;75.76
69127;BME280;56688;50.234;19.292;2023-03-26T02:31:46;97501.98;;;6.40;75.87
69127;BME280;56688;50.234;19.292;2023-03-26T02:34:15;97502.04;;;6.43;76.28
69127;BME280;56688;50.234;19.292;2023-03-26T02:36:51;97506.45;;;6.46;75.69
69127;BME280;56688;50.234;19.292;2023-03-26T02:39:18;97505.42;;;6.50;75.59
69127;BME280;56688;50.234;19.292;2023-03-26T02:41:51;97504.34;;;6.53;75.45
69127;BME280;56688;50.234;19.292;2023-03-26T02:44:18;97508.93;;;6.56;75.48
69127;BME280;56688;50.234;19.292;2023-03-26T02:47:00;97506.66;;;6.59;75.50
69127;BME280;56688;50.234;19.292;2023-03-26T02:49:42;97507.78;;;6.62;75.27
69127;BME280;56688;50.234;19.292;2023-03-26T02:52:12;97514.16;;;6.68;75.12
69127;BME280;56688;50.234;19.292;2023-03-26T02:54:42;97519.60;;;6.73;75.38
69127;BME280;56688;50.234;19.292;2023-03-26T02:57:19;97516.30;;;6.75;74.97
69127;BME280;56688;50.234;19.292;2023-03-26T03:00:01;97516.40;;;6.77;75.11
69127;BME280;56688;50.234;19.292;2023-03-26T03:02:35;97516.95;;;6.80;74.84
69127;BME280;56688;50.234;19.292;2023-03-26T03:05:23;97513.74;;;6.86;75.08
69127;BME280;56688;50.234;19.292;2023-03-26T03:08:03;97503.98;;;6.89;74.63
69127;BME280;56688;50.234;19.292;2023-03-26T03:10:32;97503.48;;;6.93;74.36
69127;BME280;56688;50.234;19.292;2023-03-26T03:13:05;97496.18;;;6.95;74.44
69127;BME280;56688;50.234;19.292;2023-03-26T03:15:33;97493.93;;;6.94;74.23
69127;BME280;56688;50.234;19.292;2023-03-26T03:18:01;97490.43;;;6.95;74.25
69127;BME280;56688;50.234;19.292;2023-03-26T03:20:30;97486.08;;;6.97;73.88
69127;BME280;56688;50.234;19.292;2023-03-26T03:23:01;97484.15;;;6.99;73.65
69127;BME280;56688;50.234;19.292;2023-03-26T03:25:28;97482.55;;;6.99;74.08
69127;BME280;56688;50.234;19.292;2023-03-26T03:27:55;97484.23;;;6.96;73.78
69127;BME280;56688;50.234;19.292;2023-03-26T03:30:22;97496.26;;;6.94;73.69
69127;BME280;56688;50.234;19.292;2023-03-26T03:33:04;97492.70;;;6.91;73.89
69127;BME280;56688;50.234;19.292;2023-03-26T03:35:32;97494.28;;;6.92;74.03
69127;BME280;56688;50.234;19.292;2023-03-26T03:38:01;97494.75;;;6.93;73.79
69127;BME280;56688;50.234;19.292;2023-03-26T03:40:38;97495.57;;;6.94;73.85
69127;BME280;56688;50.234;19.292;2023-03-26T03:43:05;97493.13;;;6.95;73.79
69127;BME280;56688;50.234;19.292;2023-03-26T03:45:39;97492.44;;;6.96;73.78
69127;BME280;56688;50.234;19.292;2023-03-26T03:48:14;97490.40;;;6.97;74.09
69127;BME280;56688;50.234;19.292;2023-03-26T03:50:43;97497.79;;;6.94;74.14
69127;BME280;56688;50.234;19.292;2023-03-26T03:53:20;97495.93;;;6.94;73.96
69127;BME280;56688;50.234;19.292;2023-03-26T03:55:49;97495.28;;;6.95;73.85
69127;BME280;56688;50.234;19.292;2023-03-26T03:58:22;97495.02;;;6.97;73.67
69127;BME280;56688;50.234;19.292;2023-03-26T04:00:51;97494.61;;;6.97;73.30
69127;BME280;56688;50.234;19.292;2023-03-26T04:03:33;97491.94;;;6.96;72.98
69127;BME280;56688;50.234;19.292;2023-03-26T04:06:08;97494.51;;;6.94;72.95
69127;BME280;56688;50.234;19.292;2023-03-26T04:08:37;97495.77;;;6.92;72.81
69127;BME280;56688;50.234;19.292;2023-03-26T04:11:05;97500.56;;;6.91;72.85
69127;BME280;56688;50.234;19.292;2023-03-26T04:13:47;97500.66;;;6.91;73.04
69127;BME280;56688;50.234;19.292;2023-03-26T04:16:24;97497.00;;;6.94;72.77
69127;BME280;56688;50.234;19.292;2023-03-26T04:18:51;97496.30;;;6.95;72.70
69127;BME280;56688;50.234;19.292;2023-03-26T04:21:18;97499.50;;;6.96;72.52
69127;BME280;56688;50.234;19.292;2023-03-26T04:23:46;97498.60;;;6.96;72.89
69127;BME280;56688;50.234;19.292;2023-03-26T04:26:21;97495.63;;;6.96;72.78
69127;BME280;56688;50.234;19.292;2023-03-26T04:29:02;97493.20;;;6.94;72.81
69127;BME280;56688;50.234;19.292;2023-03-26T04:31:31;97490.88;;;6.96;72.76
69127;BME280;56688;50.234;19.292;2023-03-26T04:34:06;97499.09;;;6.98;72.87
69127;BME280;56688;50.234;19.292;2023-03-26T04:36:41;97494.41;;;7.02;72.76
69127;BME280;56688;50.234;19.292;2023-03-26T04:39:10;97490.74;;;7.04;72.51
69127;BME280;56688;50.234;19.292;2023-03-26T04:41:58;97487.84;;;7.06;72.70
69127;BME280;56688;50.234;19.292;2023-03-26T04:44:31;97485.13;;;7.05;72.63
69127;BME280;56688;50.234;19.292;2023-03-26T04:47:05;97481.85;;;7.05;72.61
69127;BME280;56688;50.234;19.292;2023-03-26T04:49:37;97482.08;;;7.06;72.32
69127;BME280;56688;50.234;19.292;2023-03-26T04:52:04;97480.95;;;7.09;72.40
69127;BME280;56688;50.234;19.292;2023-03-26T04:54:47;97481.21;;;7.11;72.76
69127;BME280;56688;50.234;19.292;2023-03-26T04:59:57;97482.81;;;7.15;72.41
69127;BME280;56688;50.234;19.292;2023-03-26T05:02:24;97483.60;;;7.17;72.08
69127;BME280;56688;50.234;19.292;2023-03-26T05:04:53;97485.15;;;7.22;72.03
69127;BME280;56688;50.234;19.292;2023-03-26T05:07:21;97481.65;;;7.23;71.73
69127;BME280;56688;50.234;19.292;2023-03-26T05:09:53;97487.92;;;7.27;72.05
69127;BME280;56688;50.234;19.292;2023-03-26T05:12:22;97483.80;;;7.27;72.02
69127;BME280;56688;50.234;19.292;2023-03-26T05:14:52;97488.97;;;7.28;71.99
69127;BME280;56688;50.234;19.292;2023-03-26T05:17:28;97493.00;;;7.30;71.43
69127;BME280;56688;50.234;19.292;2023-03-26T05:19:56;97490.05;;;7.37;71.33
69127;BME280;56688;50.234;19.292;2023-03-26T05:22:24;97483.21;;;7.46;71.22
69127;BME280;56688;50.234;19.292;2023-03-26T05:25:12;97481.48;;;7.53;70.36
69127;BME280;56688;50.234;19.292;2023-03-26T05:27:38;97482.74;;;7.60;70.02
69127;BME280;56688;50.234;19.292;2023-03-26T05:30:06;97480.14;;;7.63;69.85
69127;BME280;56688;50.234;19.292;2023-03-26T05:32:40;97473.73;;;7.68;69.79
69127;BME280;56688;50.234;19.292;2023-03-26T05:35:07;97476.19;;;7.69;68.86
69127;BME280;56688;50.234;19.292;2023-03-26T05:37:35;97479.71;;;7.72;68.88
69127;BME280;56688;50.234;19.292;2023-03-26T05:40:06;97479.33;;;7.81;68.63
69127;BME280;56688;50.234;19.292;2023-03-26T05:42:44;97479.84;;;7.88;68.12
69127;BME280;56688;50.234;19.292;2023-03-26T05:45:25;97478.88;;;7.90;68.16
69127;BME280;56688;50.234;19.292;2023-03-26T05:47:52;97484.05;;;7.92;67.94
69127;BME280;56688;50.234;19.292;2023-03-26T05:50:22;97486.27;;;7.96;67.99
69127;BME280;56688;50.234;19.292;2023-03-26T05:52:51;97486.39;;;8.00;67.85
69127;BME280;56688;50.234;19.292;2023-03-26T05:55:33;97488.56;;;8.03;67.68
69127;BME280;56688;50.234;19.292;2023-03-26T05:58:15;97493.18;;;8.04;67.05
69127;BME280;56688;50.234;19.292;2023-03-26T06:01:00;97495.44;;;8.03;66.87
69127;BME280;56688;50.234;19.292;2023-03-26T06:03:44;97497.86;;;8.01;66.79
69127;BME280;56688;50.234;19.292;2023-03-26T06:06:17;97495.30;;;8.00;66.50
69127;BME280;56688;50.234;19.292;2023-03-26T06:08:52;97496.45;;;7.99;67.02
69127;BME280;56688;50.234;19.292;2023-03-26T06:11:29;97497.98;;;8.02;66.91
69127;BME280;56688;50.234;19.292;2023-03-26T06:13:59;97500.42;;;8.07;66.54
69127;BME280;56688;50.234;19.292;2023-03-26T06:16:26;97502.36;;;8.13;66.67
69127;BME280;56688;50.234;19.292;2023-03-26T06:19:03;97501.55;;;8.20;66.35
69127;BME280;56688;50.234;19.292;2023-03-26T06:21:44;97503.08;;;8.25;66.19
69127;BME280;56688;50.234;19.292;2023-03-26T06:24:19;97504.05;;;8.31;65.73
69127;BME280;56688;50.234;19.292;2023-03-26T06:27:06;97504.31;;;8.38;66.00
69127;BME280;56688;50.234;19.292;2023-03-26T06:29:48;97505.94;;;8.43;65.43
69127;BME280;56688;50.234;19.292;2023-03-26T06:32:19;97508.33;;;8.46;65.25
69127;BME280;56688;50.234;19.292;2023-03-26T06:34:52;97509.27;;;8.49;65.21
69127;BME280;56688;50.234;19.292;2023-03-26T06:37:20;97506.59;;;8.51;64.79
69127;BME280;56688;50.234;19.292;2023-03-26T06:39:49;97508.27;;;8.56;64.72
69127;BME280;56688;50.234;19.292;2023-03-26T06:42:18;97509.77;;;8.64;64.27
69127;BME280;56688;50.234;19.292;2023-03-26T06:44:45;97508.59;;;8.74;64.19
69127;BME280;56688;50.234;19.292;2023-03-26T06:47:28;97507.34;;;8.92;63.64
69127;BME280;56688;50.234;19.292;2023-03-26T06:50:10;97504.85;;;9.14;63.27
69127;BME280;56688;50.234;19.292;2023-03-26T06:52:53;97502.16;;;9.44;63.02
69127;BME280;56688;50.234;19.292;2023-03-26T06:55:36;97497.14;;;9.64;61.64
69127;BME280;56688;50.234;19.292;2023-03-26T06:58:19;97495.52;;;9.73;61.00
69127;BME280;56688;50.234;19.292;2023-03-26T07:01:06;97502.17;;;9.78;60.96
69127;BME280;56688;50.234;19.292;2023-03-26T07:03:48;97499.44;;;9.75;60.32
69127;BME280;56688;50.234;19.292;2023-03-26T07:06:35;97501.01;;;9.64;60.34
69127;BME280;56688;50.234;19.292;2023-03-26T07:09:17;97493.82;;;9.56;60.20
69127;BME280;56688;50.234;19.292;2023-03-26T07:12:05;97496.48;;;9.49;60.66
69127;BME280;56688;50.234;19.292;2023-03-26T07:14:48;97499.73;;;9.47;60.83
69127;BME280;56688;50.234;19.292;2023-03-26T07:17:30;97500.14;;;9.50;60.79
69127;BME280;56688;50.234;19.292;2023-03-26T07:20:12;97499.82;;;9.48;60.81
69127;BME280;56688;50.234;19.292;2023-03-26T07:22:41;97501.77;;;9.48;60.92
69127;BME280;56688;50.234;19.292;2023-03-26T07:25:14;97497.92;;;9.52;61.54
69127;BME280;56688;50.234;19.292;2023-03-26T07:28:17;97496.94;;;9.61;61.05
69127;BME280;56688;50.234;19.292;2023-03-26T07:31:09;97488.09;;;9.82;60.70
69127;BME280;56688;50.234;19.292;2023-03-26T07:34:17;97482.87;;;10.09;60.03
69127;BME280;56688;50.234;19.292;2023-03-26T07:37:04;97486.44;;;10.64;59.44
69127;BME280;56688;50.234;19.292;2023-03-26T07:39:56;97484.94;;;10.77;57.51
69127;BME280;56688;50.234;19.292;2023-03-26T07:45:39;97492.02;;;10.64;58.60
69127;BME280;56688;50.234;19.292;2023-03-26T07:48:22;97489.68;;;10.57;58.08
69127;BME280;56688;50.234;19.292;2023-03-26T07:51:09;97486.79;;;10.45;57.96
69127;BME280;56688;50.234;19.292;2023-03-26T07:53:50;97490.48;;;10.43;58.53
69127;BME280;56688;50.234;19.292;2023-03-26T07:56:45;97493.13;;;10.48;58.79
69127;BME280;56688;50.234;19.292;2023-03-26T07:59:39;97491.05;;;10.55;58.20
69127;BME280;56688;50.234;19.292;2023-03-26T08:05:28;97499.36;;;10.70;57.90
69127;BME280;56688;50.234;19.292;2023-03-26T08:08:18;97501.20;;;10.73;57.37
69127;BME280;56688;50.234;19.292;2023-03-26T08:13:45;97501.46;;;10.76;57.22
69127;BME280;56688;50.234;19.292;2023-03-26T08:16:28;97499.27;;;10.78;57.31
69127;BME280;56688;50.234;19.292;2023-03-26T08:19:05;97493.68;;;10.86;57.09
69127;BME280;56688;50.234;19.292;2023-03-26T08:21:43;97496.19;;;11.00;56.85
69127;BME280;56688;50.234;19.292;2023-03-26T08:24:26;97488.30;;;11.17;56.20
69127;BME280;56688;50.234;19.292;2023-03-26T08:26:58;97489.62;;;11.44;55.61
69127;BME280;56688;50.234;19.292;2023-03-26T08:32:15;97483.29;;;12.32;53.74
69127;BME280;56688;50.234;19.292;2023-03-26T08:34:42;97478.73;;;13.06;52.55
69127;BME280;56688;50.234;19.292;2023-03-26T08:37:10;97479.92;;;13.62;49.99
69127;BME280;56688;50.234;19.292;2023-03-26T08:39:38;97470.61;;;14.01;49.03
69127;BME280;56688;50.234;19.292;2023-03-26T08:50:32;97467.96;;;14.41;46.18
69127;BME280;56688;50.234;19.292;2023-03-26T08:56:00;97467.15;;;14.66;45.29
69127;BME280;56688;50.234;19.292;2023-03-26T09:18:18;97452.90;;;14.55;44.22
69127;BME280;56688;50.234;19.292;2023-03-26T09:32:41;97442.71;;;14.44;44.00
69127;BME280;56688;50.234;19.292;2023-03-26T09:38:00;97439.50;;;14.29;44.47
69127;BME280;56688;50.234;19.292;2023-03-26T09:51:40;97427.95;;;14.56;44.76
69127;BME280;56688;50.234;19.292;2023-03-26T10:05:00;97415.36;;;15.39;42.43
69127;BME280;56688;50.234;19.292;2023-03-26T10:07:40;97416.59;;;15.24;42.72
69127;BME280;56688;50.234;19.292;2023-03-26T10:18:12;97412.23;;;14.66;43.23
69127;BME280;56688;50.234;19.292;2023-03-26T10:21:14;97407.67;;;14.38;44.17
69127;BME280;56688;50.234;19.292;2023-03-26T10:26:33;97420.32;;;13.93;47.49
69127;BME280;56688;50.234;19.292;2023-03-26T10:29:43;97426.92;;;13.62;50.35
69127;BME280;56688;50.234;19.292;2023-03-26T10:32:13;97430.30;;;13.29;53.64
69127;BME280;56688;50.234;19.292;2023-03-26T10:35:01;97430.86;;;13.07;55.59
69127;BME280;56688;50.234;19.292;2023-03-26T10:40:30;97429.61;;;12.77;57.74
69127;BME280;56688;50.234;19.292;2023-03-26T10:43:16;97430.72;;;12.70;57.03
69127;BME280;56688;50.234;19.292;2023-03-26T10:54:08;97428.55;;;12.38;59.02
69127;BME280;56688;50.234;19.292;2023-03-26T10:56:48;97429.23;;;12.55;58.90
69127;BME280;56688;50.234;19.292;2023-03-26T10:59:17;97427.23;;;12.74;57.26
69127;BME280;56688;50.234;19.292;2023-03-26T11:02:18;97421.61;;;12.95;57.03
69127;BME280;56688;50.234;19.292;2023-03-26T11:07:57;97413.06;;;13.44;55.84
69127;BME280;56688;50.234;19.292;2023-03-26T11:10:47;97407.05;;;13.65;54.44
69127;BME280;56688;50.234;19.292;2023-03-26T11:16:09;97405.92;;;14.05;52.40
69127;BME280;56688;50.234;19.292;2023-03-26T11:21:25;97398.29;;;14.70;50.27
69127;BME280;56688;50.234;19.292;2023-03-26T11:26:48;97389.11;;;14.93;49.33
69127;BME280;56688;50.234;19.292;2023-03-26T11:29:37;97387.71;;;14.80;48.59
69127;BME280;56688;50.234;19.292;2023-03-26T11:32:11;97388.37;;;14.55;48.73
69127;BME280;56688;50.234;19.292;2023-03-26T11:34:52;97383.33;;;14.31;48.86
69127;BME280;56688;50.234;19.292;2023-03-26T11:37:41;97381.52;;;14.20;49.99
69127;BME280;56688;50.234;19.292;2023-03-26T11:40:15;97378.87;;;14.22;50.12
69127;BME280;56688;50.234;19.292;2023-03-26T11:42:50;97372.33;;;14.31;50.16
69127;BME280;56688;50.234;19.292;2023-03-26T11:45:21;97370.41;;;14.43;49.32
69127;BME280;56688;50.234;19.292;2023-03-26T11:47:52;97369.39;;;14.59;48.61
69127;BME280;56688;50.234;19.292;2023-03-26T11:50:26;97360.77;;;14.99;48.75
69127;BME280;56688;50.234;19.292;2023-03-26T11:52:58;97353.36;;;15.28;46.84
69127;BME280;56688;50.234;19.292;2023-03-26T11:55:29;97353.55;;;15.37;46.24
69127;BME280;56688;50.234;19.292;2023-03-26T11:57:58;97354.66;;;15.40;45.84
69127;BME280;56688;50.234;19.292;2023-03-26T12:00:26;97356.15;;;15.39;45.44
69127;BME280;56688;50.234;19.292;2023-03-26T12:02:56;97350.34;;;15.38;45.17
69127;BME280;56688;50.234;19.292;2023-03-26T12:05:27;97347.66;;;15.35;45.60
69127;BME280;56688;50.234;19.292;2023-03-26T12:08:17;97343.45;;;15.42;44.35
69127;BME280;56688;50.234;19.292;2023-03-26T12:10:57;97340.90;;;15.74;43.02
69127;BME280;56688;50.234;19.292;2023-03-26T12:16:12;97333.48;;;15.92;41.34
69127;BME280;56688;50.234;19.292;2023-03-26T12:18:42;97328.64;;;15.88;42.09
69127;BME280;56688;50.234;19.292;2023-03-26T12:21:14;97322.63;;;15.85;41.91
69127;BME280;56688;50.234;19.292;2023-03-26T12:29:13;97315.08;;;15.42;42.12
69127;BME280;56688;50.234;19.292;2023-03-26T12:34:15;97305.73;;;15.27;42.70
69127;BME280;56688;50.234;19.292;2023-03-26T12:36:52;97301.40;;;15.22;43.36
69127;BME280;56688;50.234;19.292;2023-03-26T12:42:32;97300.41;;;15.39;43.68
69127;BME280;56688;50.234;19.292;2023-03-26T12:45:27;97293.56;;;15.47;43.33
69127;BME280;56688;50.234;19.292;2023-03-26T12:47:55;97294.86;;;15.36;42.62
69127;BME280;56688;50.234;19.292;2023-03-26T12:55:56;97278.73;;;15.57;42.53
69127;BME280;56688;50.234;19.292;2023-03-26T13:06:35;97263.65;;;15.90;40.64
69127;BME280;56688;50.234;19.292;2023-03-26T13:12:09;97262.39;;;15.38;40.13
69127;BME280;56688;50.234;19.292;2023-03-26T13:14:59;97258.67;;;15.25;40.73
69127;BME280;56688;50.234;19.292;2023-03-26T13:33:56;97234.35;;;17.11;37.22
69127;BME280;56688;50.234;19.292;2023-03-26T13:42:20;97227.94;;;18.65;35.00
69127;BME280;56688;50.234;19.292;2023-03-26T13:47:45;97228.68;;;18.67;33.98
69127;BME280;56688;50.234;19.292;2023-03-26T13:52:55;97227.84;;;18.37;34.39
69127;BME280;56688;50.234;19.292;2023-03-26T13:55:41;97225.89;;;18.36;33.88
69127;BME280;56688;50.234;19.292;2023-03-26T13:58:15;97222.73;;;18.60;34.01
69127;BME280;56688;50.234;19.292;2023-03-26T14:00:50;97221.98;;;18.66;33.27
69127;BME280;56688;50.234;19.292;2023-03-26T14:03:23;97227.75;;;18.16;34.04
69127;BME280;56688;50.234;19.292;2023-03-26T14:05:55;97228.36;;;17.53;34.80
69127;BME280;56688;50.234;19.292;2023-03-26T14:08:25;97224.51;;;16.96;35.84
69127;BME280;56688;50.234;19.292;2023-03-26T14:11:05;97221.30;;;16.59;36.58
69127;BME280;56688;50.234;19.292;2023-03-26T14:14:00;97224.18;;;16.31;37.45
69127;BME280;56688;50.234;19.292;2023-03-26T14:16:42;97221.51;;;15.99;38.51
69127;BME280;56688;50.234;19.292;2023-03-26T14:19:33;97215.48;;;15.69;38.40
69127;BME280;56688;50.234;19.292;2023-03-26T14:28:08;97217.02;;;14.78;41.11
69127;BME280;56688;50.234;19.292;2023-03-26T14:41:54;97215.33;;;14.10;42.96
69127;BME280;56688;50.234;19.292;2023-03-26T14:55:00;97209.06;;;13.58;43.77
69127;BME280;56688;50.234;19.292;2023-03-26T15:00:30;97207.23;;;13.50;43.13
69127;BME280;56688;50.234;19.292;2023-03-26T15:03:25;97204.96;;;13.46;43.18
69127;BME280;56688;50.234;19.292;2023-03-26T15:11:38;97192.08;;;13.27;43.66
69127;BME280;56688;50.234;19.292;2023-03-26T15:33:06;97172.45;;;13.08;44.61
69127;BME280;56688;50.234;19.292;2023-03-26T15:47:38;97159.09;;;13.18;43.73
69127;BME280;56688;50.234;19.292;2023-03-26T15:53:03;97154.34;;;13.08;44.01
69127;BME280;56688;50.234;19.292;2023-03-26T15:55:40;97158.02;;;13.00;44.37
69127;BME280;56688;50.234;19.292;2023-03-26T15:58:29;97153.87;;;12.94;44.30
69127;BME280;56688;50.234;19.292;2023-03-26T16:06:45;97156.88;;;12.81;44.60
69127;BME280;56688;50.234;19.292;2023-03-26T16:09:25;97153.77;;;12.79;44.99
69127;BME280;56688;50.234;19.292;2023-03-26T16:12:17;97152.64;;;12.76;45.42
69127;BME280;56688;50.234;19.292;2023-03-26T16:23:31;97150.83;;;12.72;45.16
69127;BME280;56688;50.234;19.292;2023-03-26T16:26:18;97150.18;;;12.67;44.06
69127;BME280;56688;50.234;19.292;2023-03-26T16:34:19;97151.39;;;12.49;45.49
69127;BME280;56688;50.234;19.292;2023-03-26T16:36:48;97152.36;;;12.40;45.15
69127;BME280;56688;50.234;19.292;2023-03-26T16:39:22;97150.67;;;12.32;44.70
69127;BME280;56688;50.234;19.292;2023-03-26T16:41:54;97151.58;;;12.25;44.65
69127;BME280;56688;50.234;19.292;2023-03-26T16:47:30;97146.63;;;12.11;45.08
69127;BME280;56688;50.234;19.292;2023-03-26T16:57:53;97142.48;;;11.92;45.09
69127;BME280;56688;50.234;19.292;2023-03-26T17:02:56;97142.42;;;11.83;46.11
69127;BME280;56688;50.234;19.292;2023-03-26T17:05:35;97150.36;;;11.75;46.29
69127;BME280;56688;50.234;19.292;2023-03-26T17:10:45;97145.23;;;11.56;47.12
69127;BME280;56688;50.234;19.292;2023-03-26T17:13:40;97145.78;;;11.47;47.17
69127;BME280;56688;50.234;19.292;2023-03-26T17:16:26;97148.58;;;11.37;47.55
69127;BME280;56688;50.234;19.292;2023-03-26T17:19:04;97148.05;;;11.28;48.02
69127;BME280;56688;50.234;19.292;2023-03-26T17:21:56;97150.48;;;11.17;47.77
69127;BME280;56688;50.234;19.292;2023-03-26T17:24:39;97153.35;;;11.09;48.12
69127;BME280;56688;50.234;19.292;2023-03-26T17:30:37;97151.35;;;10.98;48.41
69127;BME280;56688;50.234;19.292;2023-03-26T17:33:11;97151.92;;;10.96;48.76
69127;BME280;56688;50.234;19.292;2023-03-26T17:40:55;97149.45;;;10.80;48.73
69127;BME280;56688;50.234;19.292;2023-03-26T17:43:33;97145.53;;;10.77;48.86
69127;BME280;56688;50.234;19.292;2023-03-26T17:46:03;97146.03;;;10.72;49.22
69127;BME280;56688;50.234;19.292;2023-03-26T17:48:35;97149.58;;;10.69;49.33
69127;BME280;56688;50.234;19.292;2023-03-26T17:53:48;97150.33;;;10.63;49.68
69127;BME280;56688;50.234;19.292;2023-03-26T17:56:23;97152.02;;;10.58;49.77
69127;BME280;56688;50.234;19.292;2023-03-26T17:58:55;97148.20;;;10.53;50.04
69127;BME280;56688;50.234;19.292;2023-03-26T18:01:39;97147.91;;;10.49;49.81
69127;BME280;56688;50.234;19.292;2023-03-26T18:04:17;97142.65;;;10.49;49.56
69127;BME280;56688;50.234;19.292;2023-03-26T18:07:02;97143.16;;;10.48;49.61
69127;BME280;56688;50.234;19.292;2023-03-26T18:17:24;97140.90;;;10.40;50.03
69127;BME280;56688;50.234;19.292;2023-03-26T18:19:53;97141.68;;;10.36;50.05
69127;BME280;56688;50.234;19.292;2023-03-26T18:22:24;97143.45;;;10.31;50.24
69127;BME280;56688;50.234;19.292;2023-03-26T18:24:56;97147.72;;;10.26;50.36
69127;BME280;56688;50.234;19.292;2023-03-26T18:27:32;97149.23;;;10.23;50.43
69127;BME280;56688;50.234;19.292;2023-03-26T18:30:28;97149.89;;;10.18;50.74
69127;BME280;56688;50.234;19.292;2023-03-26T18:33:00;97151.84;;;10.13;50.78
69127;BME280;56688;50.234;19.292;2023-03-26T18:35:44;97151.56;;;10.10;51.37
69127;BME280;56688;50.234;19.292;2023-03-26T18:38:15;97150.61;;;10.07;51.17
69127;BME280;56688;50.234;19.292;2023-03-26T18:41:02;97149.12;;;10.05;51.13
69127;BME280;56688;50.234;19.292;2023-03-26T18:43:32;97145.79;;;10.05;51.74
69127;BME280;56688;50.234;19.292;2023-03-26T18:46:11;97147.87;;;10.03;51.32
69127;BME280;56688;50.234;19.292;2023-03-26T18:48:39;97149.48;;;10.03;52.02
69127;BME280;56688;50.234;19.292;2023-03-26T18:51:06;97146.23;;;10.04;52.03